Tropical Cyclones
[Index]
Main Index Home Page Stock Weather Photos Extreme Storms Discussion Storm News and Storm Chasing Reports Tropical Cyclones / Hurricanes / Typhoons Weather Data and Links Wild Fires / Bushfires Weather Observation Techniques Weather Picture Catalogue Tornado Pictures and Reports Stock Video Footage and DVDs for sale
Season 1998-1999 Tropical Cyclone CORA Track Map
Season 1998-1999 Summaries (Operational Data): [AU] [SIO] [SPAC] [SH]
<<- Previous TC | 1998-1999 Season | Next TC ->>

click for intensity scale information  Lat/long Grid: Show Hide

 Date Labels: Show Hide

Operational Tropical Cyclone Data : JTWC Advisories

Name: CORA
Number: 9909

21 Dec 1998 06:00 UTC to 28 Dec 1998 23:00 UTC

    date/time    lat    long     hPa   cat  kts
1998-12-21 06   13.0   173.0W   1002         25          
1998-12-22 00   14.1   175.8W    999         25          
1998-12-22 06   14.1   175.7W    999         25          
1998-12-22 12   13.7   175.7W    999         25          
1998-12-22 18   14.0   176.7W    999         25          
1998-12-23 00   14.3   177.1W    999         25          
1998-12-23 06   14.6   177.8W    998         30          
1998-12-23 12   15.0   178.0W    998         30          
1998-12-23 18   14.9   178.8W    998         30          
1998-12-24 00   14.8   178.6W    998         30          
1998-12-24 06   15.4   178.5W    992    1    35          
1998-12-24 12   15.8   178.2W    987    1    45          
1998-12-24 18   16.8   177.9W    980    2    55          
1998-12-25 00   17.0   177.0W    980    2    55          
1998-12-25 06   18.1   176.6W    980    2    55          
1998-12-25 08   18.5   176.5W    975    2    60          
1998-12-25 12   19.1   176.5W    970    3    65          
1998-12-25 18   20.0   175.9W    960    3    75          
1998-12-26 00   20.7   175.4W    960    3    75          
1998-12-26 06   21.4   174.3W    960    3    75          
1998-12-26 12   22.0   172.8W    965    3    70          
1998-12-26 18   22.9   171.1W    965    3    70          
1998-12-27 00   23.8   169.2W    970    3    65          
1998-12-27 06   24.6   166.5W    970    3    65          
1998-12-27 12   25.1   163.1W    970    3    65          
1998-12-27 18   26.2   160.1W    970    3    65          
1998-12-28 00   27.3   157.7W    980    2    55          
1998-12-28 05   27.5   156.0W    983    2    50          
1998-12-28 11   29.0   154.0W    985    2    50          
1998-12-28 17   31.0   150.0W    989    2    50          
1998-12-28 23   33.0   149.0W    990    2    50          
Winds are 10-min average.

Tropical cyclone tracks developed by Michael Bath using operational warnings and advisories and Google Maps.


[Australian Severe Weather index] [Copyright Notice] [Email Contacts] [Search This Site] [Privacy Policy]
Document: tropical_cyclone_cora.htm Updated: 28 May 2013